createdAt,value
2022-08-30T00:00:41.295Z,5.57
2022-08-30T00:03:12.223Z,6.30
2022-08-30T00:05:40.833Z,4.60
2022-08-30T00:08:10.474Z,5.90
2022-08-30T00:10:39.186Z,4.87
2022-08-30T00:13:08.059Z,6.13
2022-08-30T00:15:36.015Z,5.70
2022-08-30T00:18:03.850Z,5.30
2022-08-30T00:20:34.212Z,5.83
2022-08-30T00:23:06.255Z,6.43
2022-08-30T00:25:36.064Z,5.20
2022-08-30T00:28:04.368Z,5.53
2022-08-30T00:30:32.544Z,5.50
2022-08-30T00:33:00.409Z,6.07
2022-08-30T00:35:28.446Z,5.60
2022-08-30T00:37:56.339Z,6.47
2022-08-30T00:40:27.210Z,6.27
2022-08-30T00:42:59.620Z,6.13
2022-08-30T00:45:30.452Z,6.17
2022-08-30T00:47:58.924Z,5.60
2022-08-30T00:50:31.606Z,5.90
2022-08-30T00:53:05.281Z,6.10
2022-08-30T00:55:33.637Z,5.70
2022-08-30T00:58:06.766Z,5.13
2022-08-30T01:00:35.163Z,6.13
2022-08-30T01:03:03.139Z,6.30
2022-08-30T01:05:31.200Z,5.63
2022-08-30T01:07:59.019Z,5.80
2022-08-30T01:10:26.897Z,5.20
2022-08-30T01:12:54.719Z,6.00
2022-08-30T01:15:24.290Z,5.00
2022-08-30T01:17:52.284Z,4.70
2022-08-30T01:20:27.829Z,4.20
2022-08-30T01:23:07.456Z,4.57
2022-08-30T01:25:37.960Z,5.10
2022-08-30T01:28:08.273Z,4.93
2022-08-30T01:30:40.167Z,4.90
2022-08-30T01:33:08.906Z,5.27
2022-08-30T01:35:44.270Z,5.77
2022-08-30T01:38:14.828Z,5.40
2022-08-30T01:40:42.838Z,6.10
2022-08-30T01:43:12.250Z,5.90
2022-08-30T01:45:40.160Z,6.67
2022-08-30T01:48:08.285Z,6.00
2022-08-30T01:50:36.469Z,6.20
2022-08-30T01:53:08.521Z,5.90
2022-08-30T01:55:43.454Z,5.93
2022-08-30T01:58:11.941Z,6.30
2022-08-30T02:00:40.249Z,6.67
2022-08-30T02:03:08.313Z,6.30
2022-08-30T02:05:36.522Z,6.70
2022-08-30T02:08:05.019Z,5.57
2022-08-30T02:10:33.149Z,5.73
2022-08-30T02:13:02.997Z,5.53
2022-08-30T02:15:30.941Z,5.60
2022-08-30T02:18:10.547Z,6.10
2022-08-30T02:20:39.528Z,6.07
2022-08-30T02:23:07.553Z,6.40
2022-08-30T02:25:35.392Z,5.70
2022-08-30T02:28:05.123Z,6.23
2022-08-30T02:30:34.505Z,5.30
2022-08-30T02:33:02.373Z,5.80
2022-08-30T02:35:30.192Z,5.33
2022-08-30T02:37:58.184Z,6.00
2022-08-30T02:40:26.192Z,6.50
2022-08-30T02:42:54.053Z,6.27
2022-08-30T02:45:23.364Z,6.13
2022-08-30T02:47:51.834Z,5.27
2022-08-30T02:50:20.224Z,5.37
2022-08-30T02:52:48.545Z,6.03
2022-08-30T02:55:17.329Z,5.10
2022-08-30T02:57:45.461Z,6.67
2022-08-30T03:00:16.384Z,5.03
2022-08-30T03:02:45.754Z,4.70
2022-08-30T03:05:15.313Z,4.77
2022-08-30T03:07:43.784Z,6.57
2022-08-30T03:10:11.848Z,5.40
2022-08-30T03:12:42.409Z,6.47
2022-08-30T03:15:13.350Z,6.10
2022-08-30T03:17:41.841Z,6.03
2022-08-30T03:20:12.162Z,5.37
2022-08-30T03:22:40.478Z,5.90
2022-08-30T03:25:09.380Z,5.53
2022-08-30T03:27:37.418Z,5.23
2022-08-30T03:30:06.819Z,6.20
2022-08-30T03:32:37.993Z,5.17
2022-08-30T03:35:07.041Z,5.80
2022-08-30T03:37:37.124Z,4.93
2022-08-30T03:40:07.375Z,4.70
2022-08-30T03:42:35.328Z,5.97
2022-08-30T03:45:03.288Z,5.47
2022-08-30T03:47:31.377Z,5.10
2022-08-30T03:49:59.330Z,5.63
2022-08-30T03:52:28.437Z,5.97
2022-08-30T03:54:57.596Z,5.67
2022-08-30T03:57:25.658Z,5.17
2022-08-30T03:59:53.634Z,5.53
2022-08-30T04:02:21.750Z,5.07
2022-08-30T04:04:49.657Z,5.50
2022-08-30T04:07:18.591Z,5.40
2022-08-30T04:09:47.199Z,5.70
2022-08-30T04:12:16.348Z,5.87
2022-08-30T04:14:50.484Z,4.90
2022-08-30T04:17:18.337Z,5.67
2022-08-30T04:19:46.241Z,5.90
2022-08-30T04:22:14.048Z,5.90
2022-08-30T04:24:42.458Z,5.10
2022-08-30T04:27:10.364Z,5.20
2022-08-30T04:29:39.851Z,5.23
2022-08-30T04:32:07.857Z,5.00
2022-08-30T04:34:35.732Z,6.30
2022-08-30T04:37:03.582Z,5.07
2022-08-30T04:39:32.277Z,4.87
2022-08-30T04:42:00.121Z,5.57
2022-08-30T04:44:27.977Z,5.40
2022-08-30T04:46:57.105Z,5.33
2022-08-30T04:49:24.953Z,4.70
2022-08-30T04:51:52.918Z,4.37
2022-08-30T04:54:20.797Z,4.70
2022-08-30T04:56:48.665Z,5.47
2022-08-30T04:59:16.826Z,5.00
2022-08-30T05:01:46.127Z,5.37
2022-08-30T05:04:15.874Z,5.80
2022-08-30T05:06:44.154Z,5.30
2022-08-30T05:09:12.173Z,6.20
2022-08-30T05:11:39.977Z,5.73
2022-08-30T05:14:09.965Z,6.40
2022-08-30T05:16:37.758Z,5.17
2022-08-30T05:19:05.717Z,6.10
2022-08-30T05:21:34.897Z,5.13
2022-08-30T05:24:02.896Z,6.10
2022-08-30T05:26:35.243Z,5.20
2022-08-30T05:29:03.126Z,5.50
2022-08-30T05:31:33.712Z,5.10
2022-08-30T05:34:01.796Z,5.50
2022-08-30T05:36:32.233Z,6.57
2022-08-30T05:39:01.518Z,6.33
2022-08-30T05:41:29.444Z,5.50
2022-08-30T05:43:59.708Z,5.70
2022-08-30T05:46:31.396Z,6.03
2022-08-30T05:48:59.808Z,6.30
2022-08-30T05:51:29.400Z,6.40
2022-08-30T05:53:59.849Z,6.20
2022-08-30T05:56:32.517Z,6.90
2022-08-30T05:59:00.457Z,6.03
2022-08-30T06:01:31.674Z,5.63
2022-08-30T06:04:03.905Z,5.87
2022-08-30T06:06:34.269Z,5.93
2022-08-30T06:09:05.063Z,6.10
2022-08-30T06:11:36.270Z,6.40
2022-08-30T06:14:05.772Z,5.27
2022-08-30T06:16:33.771Z,5.40
2022-08-30T06:19:01.715Z,5.27
2022-08-30T06:21:31.806Z,5.50
2022-08-30T06:24:00.224Z,6.10
2022-08-30T06:26:29.771Z,6.00
2022-08-30T06:28:59.793Z,5.80
2022-08-30T06:31:28.174Z,6.60
2022-08-30T06:33:56.360Z,6.33
2022-08-30T06:36:25.674Z,4.90
2022-08-30T06:38:55.614Z,6.30
2022-08-30T06:41:25.609Z,5.57
2022-08-30T06:43:53.580Z,6.47
2022-08-30T06:46:24.541Z,7.37
2022-08-30T06:48:52.632Z,6.23
2022-08-30T06:51:26.233Z,5.80
2022-08-30T06:53:54.912Z,5.50
2022-08-30T06:56:23.736Z,5.50
2022-08-30T06:58:51.878Z,5.40
2022-08-30T07:01:24.388Z,5.40
2022-08-30T07:03:52.906Z,5.80
2022-08-30T07:06:21.389Z,5.10
2022-08-30T07:08:50.904Z,5.70
2022-08-30T07:11:29.505Z,5.63
2022-08-30T07:13:57.913Z,5.20
2022-08-30T07:16:27.730Z,6.30
2022-08-30T07:18:55.065Z,6.90
2022-08-30T07:21:25.535Z,5.63
2022-08-30T07:23:54.420Z,6.10
2022-08-30T07:26:24.646Z,6.43
2022-08-30T07:28:55.969Z,5.93
2022-08-30T07:31:25.007Z,5.80
2022-08-30T07:33:54.321Z,6.80
2022-08-30T07:36:22.862Z,6.00
2022-08-30T07:38:51.679Z,6.83
2022-08-30T07:41:22.306Z,5.60
2022-08-30T07:43:50.208Z,7.20
2022-08-30T07:46:19.110Z,7.00
2022-08-30T07:48:47.358Z,7.23
2022-08-30T07:51:18.950Z,6.67
2022-08-30T07:53:47.368Z,7.10
2022-08-30T07:56:15.249Z,6.67
2022-08-30T07:58:43.269Z,6.87
2022-08-30T08:01:13.341Z,6.60
2022-08-30T08:03:42.790Z,7.43
2022-08-30T08:06:13.100Z,7.17
2022-08-30T08:08:43.589Z,7.33
2022-08-30T08:11:16.330Z,7.47
2022-08-30T08:13:53.324Z,7.33
2022-08-30T08:16:23.461Z,7.57
2022-08-30T08:18:51.405Z,8.30
2022-08-30T08:21:19.256Z,9.07
2022-08-30T08:23:48.738Z,8.43
2022-08-30T08:26:16.577Z,8.20
2022-08-30T08:28:44.942Z,8.60
2022-08-30T08:31:17.438Z,7.87
2022-08-30T08:33:45.627Z,7.80
2022-08-30T08:36:13.423Z,7.80
2022-08-30T08:38:41.489Z,7.70
2022-08-30T08:41:20.318Z,6.80
2022-08-30T08:43:48.328Z,6.33
2022-08-30T08:46:24.058Z,6.70
2022-08-30T08:49:00.696Z,6.13
2022-08-30T08:51:49.854Z,5.83
2022-08-30T08:54:23.249Z,5.37
2022-08-30T08:56:52.833Z,6.00
2022-08-30T08:59:20.722Z,5.90
2022-08-30T09:01:50.726Z,5.80
2022-08-30T09:04:23.269Z,5.80
2022-08-30T09:06:55.669Z,5.40
2022-08-30T09:09:28.498Z,6.23
2022-08-30T09:11:57.813Z,4.93
2022-08-30T09:14:30.045Z,5.20
2022-08-30T09:17:02.948Z,4.73
2022-08-30T09:19:45.165Z,5.00
2022-08-30T09:22:17.821Z,5.80
2022-08-30T09:24:47.852Z,5.20
2022-08-30T09:27:26.784Z,4.70
2022-08-30T09:29:59.114Z,5.03
2022-08-30T09:32:32.818Z,4.03
2022-08-30T09:35:00.650Z,4.60
2022-08-30T09:37:39.250Z,4.30
2022-08-30T09:40:22.171Z,4.73
2022-08-30T09:43:07.928Z,4.83
2022-08-30T09:45:38.607Z,4.87
2022-08-30T09:48:28.021Z,4.97
2022-08-30T09:51:10.931Z,4.67
2022-08-30T09:54:07.349Z,4.40
2022-08-30T09:56:42.735Z,4.17
2022-08-30T09:59:32.215Z,5.07
2022-08-30T10:02:05.588Z,3.93
2022-08-30T10:04:44.546Z,3.90
2022-08-30T10:07:17.965Z,4.50
2022-08-30T10:09:54.775Z,3.30
2022-08-30T10:12:32.225Z,3.80
2022-08-30T10:15:09.236Z,3.90
2022-08-30T10:17:48.781Z,3.37
2022-08-30T10:20:22.502Z,3.63
2022-08-30T10:22:55.779Z,3.00
2022-08-30T10:25:33.351Z,4.57
2022-08-30T10:28:07.709Z,3.50
2022-08-30T10:30:41.933Z,3.40
2022-08-30T10:33:14.761Z,2.90
2022-08-30T10:35:48.596Z,3.43
2022-08-30T10:38:22.778Z,2.80
2022-08-30T10:41:14.812Z,3.50
2022-08-30T10:43:55.299Z,3.90
2022-08-30T10:46:33.877Z,3.70
2022-08-30T10:49:05.521Z,3.40
2022-08-30T10:51:40.034Z,3.17
2022-08-30T10:54:15.608Z,3.30
2022-08-30T10:56:51.307Z,4.30
2022-08-30T10:59:20.474Z,3.40
2022-08-30T11:02:16.936Z,3.47
2022-08-30T11:05:21.113Z,2.93
2022-08-30T11:07:58.866Z,3.40
2022-08-30T11:10:49.610Z,3.40
2022-08-30T11:13:21.854Z,2.90
2022-08-30T11:16:00.932Z,3.57
2022-08-30T11:18:32.258Z,3.50
2022-08-30T11:21:20.136Z,3.53
2022-08-30T11:24:16.404Z,4.10
2022-08-30T11:27:01.736Z,3.40
2022-08-30T11:29:33.593Z,5.17
2022-08-30T11:32:26.097Z,3.83
2022-08-30T11:35:01.271Z,3.80
2022-08-30T11:37:37.290Z,4.33
2022-08-30T11:40:07.411Z,4.27
2022-08-30T11:42:45.424Z,3.70
2022-08-30T11:45:52.315Z,4.03
2022-08-30T11:48:54.513Z,4.70
2022-08-30T11:52:26.731Z,3.67
2022-08-30T11:55:00.325Z,3.90
2022-08-30T11:57:36.456Z,4.03
2022-08-30T12:00:09.327Z,4.00
2022-08-30T12:02:55.515Z,4.03
2022-08-30T12:05:58.937Z,3.97
2022-08-30T12:10:32.160Z,3.40
2022-08-30T12:11:57.329Z,3.93
2022-08-30T12:14:41.407Z,4.17
2022-08-30T12:17:36.064Z,3.83
2022-08-30T12:20:06.221Z,3.73
2022-08-30T12:22:37.721Z,3.67
2022-08-30T12:25:18.211Z,4.27
2022-08-30T12:27:46.120Z,3.50
2022-08-30T12:30:15.433Z,3.90
2022-08-30T12:32:47.317Z,3.90
2022-08-30T12:35:21.736Z,4.00
2022-08-30T12:37:59.932Z,4.00
2022-08-30T12:40:31.370Z,3.33
2022-08-30T12:43:01.198Z,3.83
2022-08-30T12:45:32.891Z,3.87
2022-08-30T12:48:04.324Z,4.00
2022-08-30T12:50:36.261Z,4.13
2022-08-30T12:53:13.098Z,3.43
2022-08-30T12:55:54.591Z,3.50
2022-08-30T12:58:45.689Z,3.53
2022-08-30T13:01:29.413Z,3.63
2022-08-30T13:04:02.425Z,4.17
2022-08-30T13:06:43.683Z,3.90
2022-08-30T13:09:23.361Z,3.57
2022-08-30T13:11:52.896Z,3.70
2022-08-30T13:14:31.171Z,3.27
2022-08-30T13:17:24.495Z,3.40
2022-08-30T13:20:06.361Z,3.97
2022-08-30T13:22:35.762Z,3.60
2022-08-30T13:25:05.348Z,3.17
2022-08-30T13:27:36.875Z,4.07
2022-08-30T13:30:13.444Z,3.43
2022-08-30T13:32:42.468Z,3.27
2022-08-30T13:35:11.793Z,3.50
2022-08-30T13:37:49.648Z,3.47
2022-08-30T13:40:20.584Z,3.37
2022-08-30T13:42:50.664Z,3.13
2022-08-30T13:48:10.530Z,3.30
2022-08-30T13:50:38.377Z,3.53
2022-08-30T13:53:06.254Z,3.50
2022-08-30T13:55:34.821Z,3.10
2022-08-30T13:58:04.087Z,3.10
2022-08-30T14:00:36.775Z,3.60
2022-08-30T14:03:05.873Z,4.00
2022-08-30T14:08:45.355Z,3.30
2022-08-30T14:11:16.260Z,3.20
2022-08-30T14:16:38.901Z,3.20
2022-08-30T14:19:07.777Z,3.80
2022-08-30T14:21:36.217Z,3.70
2022-08-30T14:24:06.380Z,3.33
2022-08-30T14:26:39.356Z,3.07
2022-08-30T14:29:12.142Z,3.07
2022-08-30T14:31:40.784Z,2.93
2022-08-30T14:34:10.824Z,3.30
2022-08-30T14:36:41.110Z,3.50
2022-08-30T14:39:14.355Z,3.30
2022-08-30T14:41:45.255Z,2.80
2022-08-30T14:44:16.390Z,3.00
2022-08-30T14:46:44.738Z,3.70
2022-08-30T14:49:13.324Z,3.13
2022-08-30T14:51:42.180Z,3.07
2022-08-30T14:54:10.636Z,3.50
2022-08-30T14:56:39.195Z,3.50
2022-08-30T14:59:07.342Z,3.10
2022-08-30T15:01:38.788Z,3.17
2022-08-30T15:04:07.898Z,3.50
2022-08-30T15:06:36.144Z,3.57
2022-08-30T15:09:05.282Z,3.50
2022-08-30T15:11:33.165Z,3.17
2022-08-30T15:14:01.879Z,3.17
2022-08-30T15:16:32.938Z,2.90
2022-08-30T15:19:02.958Z,3.37
2022-08-30T15:21:33.639Z,3.30
2022-08-30T15:24:03.209Z,3.07
2022-08-30T15:26:31.088Z,3.97
2022-08-30T15:28:59.165Z,2.93
2022-08-30T15:31:29.106Z,3.17
2022-08-30T15:33:57.474Z,3.70
2022-08-30T15:36:26.864Z,3.13
2022-08-30T15:38:55.650Z,3.57
2022-08-30T15:41:24.048Z,3.37
2022-08-30T15:43:52.754Z,3.80
2022-08-30T15:46:23.434Z,3.67
2022-08-30T15:49:00.921Z,2.83
2022-08-30T15:51:41.055Z,3.27
2022-08-30T15:54:11.709Z,3.10
2022-08-30T15:56:41.838Z,3.13
2022-08-30T15:59:10.697Z,2.63
2022-08-30T16:01:39.243Z,3.60
2022-08-30T16:04:07.189Z,3.07
2022-08-30T16:06:38.126Z,3.00
2022-08-30T16:09:07.221Z,3.63
2022-08-30T16:11:35.936Z,3.10
2022-08-30T16:14:05.517Z,4.67
2022-08-30T16:16:33.413Z,3.90
2022-08-30T16:19:02.890Z,2.90
2022-08-30T16:21:33.291Z,3.57
2022-08-30T16:24:03.960Z,3.53
2022-08-30T16:26:33.638Z,3.60
2022-08-30T16:29:02.445Z,3.63
2022-08-30T16:31:32.421Z,3.60
2022-08-30T16:34:02.791Z,3.27
2022-08-30T16:36:33.050Z,3.00
2022-08-30T16:39:02.648Z,3.17
2022-08-30T16:41:32.696Z,4.27
2022-08-30T16:44:01.309Z,2.90
2022-08-30T16:46:29.394Z,3.40
2022-08-30T16:48:59.393Z,3.60
2022-08-30T16:51:30.499Z,2.93
2022-08-30T16:54:01.051Z,3.53
2022-08-30T16:56:31.816Z,3.67
2022-08-30T16:59:02.489Z,3.93
2022-08-30T17:01:31.718Z,3.43
2022-08-30T17:04:00.089Z,3.87
2022-08-30T17:06:28.309Z,3.53
2022-08-30T17:08:57.006Z,3.80
2022-08-30T17:11:25.145Z,3.27
2022-08-30T17:13:54.867Z,4.00
2022-08-30T17:16:28.011Z,3.60
2022-08-30T17:18:59.640Z,3.70
2022-08-30T17:21:28.982Z,4.17
2022-08-30T17:24:02.266Z,3.47
2022-08-30T17:26:32.041Z,3.80
2022-08-30T17:29:01.540Z,3.30
2022-08-30T17:31:30.851Z,3.77
2022-08-30T17:34:03.538Z,3.53
2022-08-30T17:36:36.292Z,3.73
2022-08-30T17:39:10.527Z,3.60
2022-08-30T17:41:43.286Z,3.80
2022-08-30T17:44:19.659Z,4.10
2022-08-30T17:46:47.626Z,3.67
2022-08-30T17:49:15.569Z,3.70
2022-08-30T17:51:45.577Z,3.90
2022-08-30T17:54:15.930Z,4.07
2022-08-30T17:56:44.445Z,4.10
2022-08-30T17:59:13.537Z,3.33
2022-08-30T18:01:43.717Z,3.60
2022-08-30T18:04:12.596Z,3.70
2022-08-30T18:06:40.482Z,3.20
2022-08-30T18:09:09.676Z,3.90
2022-08-30T18:11:39.482Z,3.43
2022-08-30T18:14:08.316Z,3.80
2022-08-30T18:16:50.225Z,4.20
2022-08-30T18:19:23.830Z,5.07
2022-08-30T18:21:52.298Z,3.63
2022-08-30T18:24:20.302Z,4.00
2022-08-30T18:26:48.228Z,4.00
2022-08-30T18:29:26.238Z,3.87
2022-08-30T18:31:57.460Z,4.17
2022-08-30T18:34:26.621Z,3.87
2022-08-30T18:36:54.441Z,3.80
2022-08-30T18:39:22.906Z,4.40
2022-08-30T18:41:50.961Z,5.10
2022-08-30T18:44:29.587Z,4.50
2022-08-30T18:47:03.643Z,4.10
2022-08-30T18:49:33.748Z,4.23
2022-08-30T18:52:02.204Z,4.53
2022-08-30T18:54:31.281Z,4.47
2022-08-30T18:56:59.764Z,4.07
2022-08-30T18:59:35.218Z,3.40
2022-08-30T19:02:17.668Z,4.40
2022-08-30T19:04:48.965Z,4.13
2022-08-30T19:07:19.261Z,4.33
2022-08-30T19:09:47.722Z,3.97
2022-08-30T19:12:16.061Z,3.67
2022-08-30T19:14:44.121Z,4.73
2022-08-30T19:17:13.393Z,4.33
2022-08-30T19:19:49.171Z,4.20
2022-08-30T19:22:22.593Z,3.93
2022-08-30T19:24:54.422Z,3.90
2022-08-30T19:27:37.114Z,4.23
2022-08-30T19:30:07.832Z,4.30
2022-08-30T19:32:36.285Z,4.00
2022-08-30T19:35:04.313Z,4.43
2022-08-30T19:37:34.307Z,4.80
2022-08-30T19:40:03.133Z,5.33
2022-08-30T19:42:31.082Z,4.80
2022-08-30T19:44:58.927Z,4.50
2022-08-30T19:47:26.926Z,4.50
2022-08-30T19:49:54.793Z,5.10
2022-08-30T19:52:22.805Z,4.50
2022-08-30T19:54:52.039Z,4.68
2022-08-30T19:57:20.090Z,4.80
2022-08-30T19:59:48.219Z,5.40
2022-08-30T20:02:16.267Z,4.97
2022-08-30T20:04:44.113Z,4.53
2022-08-30T20:07:13.491Z,5.53
2022-08-30T20:09:41.672Z,4.90
2022-08-30T20:12:11.288Z,4.03
2022-08-30T20:14:40.634Z,4.67
2022-08-30T20:17:11.741Z,5.10
2022-08-30T20:19:40.190Z,5.10
2022-08-30T20:22:08.512Z,4.40
2022-08-30T20:24:37.754Z,5.00
2022-08-30T20:27:07.362Z,5.00
2022-08-30T20:29:37.791Z,4.50
2022-08-30T20:32:06.020Z,6.03
2022-08-30T20:34:33.845Z,5.00
2022-08-30T20:37:01.749Z,4.77
2022-08-30T20:39:29.720Z,6.00
2022-08-30T20:41:57.584Z,5.10
2022-08-30T20:44:25.552Z,4.70
2022-08-30T20:46:54.741Z,5.23
2022-08-30T20:49:22.660Z,4.83
2022-08-30T20:51:54.163Z,5.67
2022-08-30T20:54:25.384Z,6.00
2022-08-30T20:56:53.245Z,6.27
2022-08-30T20:59:21.178Z,5.40
2022-08-30T21:01:49.222Z,5.30
2022-08-30T21:04:19.529Z,6.27
2022-08-30T21:06:47.348Z,6.27
2022-08-30T21:09:15.249Z,6.00
2022-08-30T21:11:44.531Z,6.30
2022-08-30T21:14:13.448Z,5.33
2022-08-30T21:16:41.855Z,5.20
2022-08-30T21:19:09.801Z,5.93
2022-08-30T21:21:39.057Z,6.27
2022-08-30T21:24:09.865Z,5.97
2022-08-30T21:26:38.571Z,5.00
2022-08-30T21:29:07.099Z,5.07
2022-08-30T21:31:37.597Z,5.50
2022-08-30T21:34:05.967Z,5.57
2022-08-30T21:36:48.337Z,5.40
2022-08-30T21:39:20.528Z,5.30
2022-08-30T21:41:49.386Z,5.60
2022-08-30T21:44:20.150Z,6.17
2022-08-30T21:46:49.300Z,5.50
2022-08-30T21:49:19.273Z,5.27
2022-08-30T21:51:49.208Z,5.53
2022-08-30T21:54:18.980Z,5.93
2022-08-30T21:56:49.328Z,5.43
2022-08-30T21:59:18.274Z,5.80
2022-08-30T22:01:47.758Z,5.50
2022-08-30T22:04:16.673Z,5.60
2022-08-30T22:06:48.159Z,5.77
2022-08-30T22:09:19.127Z,6.13
2022-08-30T22:11:47.555Z,5.87
2022-08-30T22:14:18.885Z,5.80
2022-08-30T22:16:46.847Z,6.20
2022-08-30T22:19:14.788Z,5.03
2022-08-30T22:21:44.630Z,5.60
2022-08-30T22:24:12.928Z,5.07
2022-08-30T22:26:42.273Z,5.20
2022-08-30T22:29:10.525Z,4.97
2022-08-30T22:31:41.577Z,5.10
2022-08-30T22:34:10.922Z,5.00
2022-08-30T22:36:39.550Z,5.60
2022-08-30T22:39:09.593Z,6.13
2022-08-30T22:41:40.779Z,5.60
2022-08-30T22:44:10.077Z,4.90
2022-08-30T22:46:39.084Z,5.50
2022-08-30T22:49:11.599Z,5.53
2022-08-30T22:51:40.679Z,5.33
2022-08-30T22:54:10.045Z,6.57
2022-08-30T22:56:40.271Z,5.40
2022-08-30T23:01:51.808Z,6.00
2022-08-30T23:04:19.836Z,6.37
2022-08-30T23:06:49.947Z,6.07
2022-08-30T23:09:18.393Z,5.73
2022-08-30T23:11:46.239Z,5.40
2022-08-30T23:14:14.076Z,6.63
2022-08-30T23:16:42.089Z,6.30
2022-08-30T23:19:11.416Z,7.07
2022-08-30T23:21:39.558Z,5.63
2022-08-30T23:24:25.152Z,6.20
2022-08-30T23:27:10.695Z,6.20
2022-08-30T23:29:56.209Z,6.50
2022-08-30T23:32:41.886Z,6.07
2022-08-30T23:35:30.907Z,6.30
2022-08-30T23:38:17.212Z,6.77
2022-08-30T23:41:02.764Z,6.73
2022-08-30T23:43:48.245Z,6.17
2022-08-30T23:46:34.159Z,5.70
2022-08-30T23:49:20.625Z,6.53
2022-08-30T23:52:07.775Z,6.13
2022-08-30T23:54:57.188Z,5.97
2022-08-30T23:57:43.373Z,5.50
